createdAt,value
2022-10-05T04:03:16.352Z,12.07
2022-10-05T04:05:51.169Z,12.05
2022-10-05T04:08:24.046Z,12.03
2022-10-05T04:10:55.595Z,12.03
2022-10-05T04:13:40.773Z,12.00
2022-10-05T04:16:23.852Z,12.00
2022-10-05T04:19:25.254Z,11.99
2022-10-05T04:22:20.607Z,11.98
2022-10-05T04:25:07.698Z,11.96
2022-10-05T04:27:42.061Z,11.96
2022-10-05T04:30:13.634Z,11.96
2022-10-05T04:32:43.763Z,11.95
2022-10-05T04:35:14.724Z,11.95
2022-10-05T04:37:46.516Z,11.94
2022-10-05T04:40:36.782Z,11.94
2022-10-05T04:43:11.841Z,11.93
2022-10-05T04:45:49.862Z,11.91
2022-10-05T04:48:25.715Z,11.87
2022-10-05T04:51:09.436Z,11.86
2022-10-05T04:53:48.211Z,11.88
2022-10-05T04:56:20.475Z,11.86
2022-10-05T04:58:51.477Z,11.85
2022-10-05T05:01:39.107Z,11.84
2022-10-05T05:04:33.739Z,11.84
2022-10-05T05:07:23.168Z,11.83
2022-10-05T05:10:05.986Z,11.84
2022-10-05T05:12:56.930Z,11.86
2022-10-05T05:15:35.359Z,11.88
2022-10-05T05:18:19.583Z,11.91
2022-10-05T05:20:59.630Z,11.92
2022-10-05T05:23:45.149Z,11.91
2022-10-05T05:26:22.475Z,11.94
2022-10-05T05:28:58.770Z,11.95
2022-10-05T05:31:28.031Z,11.96
2022-10-05T05:34:01.796Z,11.97
2022-10-05T05:36:38.470Z,12.00
2022-10-05T05:39:22.431Z,11.99
2022-10-05T05:41:59.815Z,12.02
2022-10-05T05:44:34.186Z,12.05
2022-10-05T05:47:19.997Z,12.07
2022-10-05T05:50:08.830Z,12.07
2022-10-05T05:52:41.710Z,12.08
2022-10-05T05:55:29.761Z,12.10
2022-10-05T05:58:05.120Z,12.15
2022-10-05T06:00:54.450Z,12.19
2022-10-05T06:03:45.427Z,12.24
2022-10-05T06:06:18.583Z,12.30
2022-10-05T06:08:53.474Z,12.35
2022-10-05T06:11:54.303Z,12.43
2022-10-05T06:14:29.701Z,12.51
2022-10-05T06:17:02.566Z,12.59
2022-10-05T06:19:32.979Z,12.64
2022-10-05T06:22:18.233Z,12.70
2022-10-05T06:24:53.568Z,12.76
2022-10-05T06:27:25.827Z,12.81
2022-10-05T06:30:11.117Z,12.89
2022-10-05T06:32:45.531Z,12.95
2022-10-05T06:35:17.545Z,12.98
2022-10-05T06:37:50.426Z,13.00
2022-10-05T06:40:27.132Z,13.05
2022-10-05T06:43:06.475Z,13.11
2022-10-05T06:45:35.695Z,13.23
2022-10-05T06:48:54.028Z,13.35
2022-10-05T06:51:48.178Z,13.48
2022-10-05T06:54:54.241Z,13.64
2022-10-05T06:57:37.154Z,13.80
2022-10-05T07:00:15.290Z,13.92
2022-10-05T07:02:47.084Z,14.01
2022-10-05T07:05:35.390Z,14.04
2022-10-05T07:08:10.636Z,14.09
2022-10-05T07:10:49.122Z,14.15
2022-10-05T07:13:24.271Z,14.21
2022-10-05T07:16:08.044Z,14.26
2022-10-05T07:18:43.391Z,14.31
2022-10-05T07:21:24.314Z,14.32
2022-10-05T07:24:02.672Z,14.34
2022-10-05T07:26:35.733Z,14.39
2022-10-05T07:29:08.507Z,14.47
2022-10-05T07:31:49.014Z,14.58
2022-10-05T07:34:27.415Z,14.66
2022-10-05T07:37:19.679Z,14.75
2022-10-05T07:40:01.464Z,14.76
2022-10-05T07:42:50.613Z,14.76
2022-10-05T07:45:33.358Z,14.79
2022-10-05T07:48:23.801Z,14.82
2022-10-05T07:50:58.142Z,14.85
2022-10-05T07:53:31.452Z,14.90
2022-10-05T07:56:03.109Z,14.98
2022-10-05T07:58:36.409Z,15.11
2022-10-05T08:01:08.437Z,15.26
2022-10-05T08:03:47.717Z,15.38
2022-10-05T08:06:27.780Z,15.51
2022-10-05T08:09:03.368Z,15.59
2022-10-05T08:11:36.651Z,15.64
2022-10-05T08:14:17.330Z,15.69
2022-10-05T08:16:47.582Z,15.78
2022-10-05T08:19:16.516Z,15.88
2022-10-05T08:21:48.356Z,15.96
2022-10-05T08:24:24.121Z,16.05
2022-10-05T08:27:02.640Z,16.16
2022-10-05T08:29:50.594Z,16.26
2022-10-05T08:32:24.081Z,16.31
2022-10-05T08:35:04.932Z,16.33
2022-10-05T08:37:38.310Z,16.32
2022-10-05T08:40:19.395Z,16.29
2022-10-05T08:43:06.479Z,16.27
2022-10-05T08:45:52.061Z,16.26
2022-10-05T08:48:25.503Z,16.32
2022-10-05T08:51:13.623Z,16.43
2022-10-05T08:54:02.875Z,16.62
2022-10-05T08:56:34.951Z,16.83
2022-10-05T08:59:37.012Z,16.99
2022-10-05T09:02:24.179Z,17.13
2022-10-05T09:05:11.721Z,17.25
2022-10-05T09:07:43.497Z,17.36
2022-10-05T09:10:30.758Z,17.41
2022-10-05T09:13:19.006Z,17.42
2022-10-05T09:15:48.327Z,17.45
2022-10-05T09:18:17.331Z,17.43
2022-10-05T09:20:59.595Z,17.42
2022-10-05T09:23:34.068Z,17.45
2022-10-05T09:26:06.128Z,17.48
2022-10-05T09:28:41.911Z,17.49
2022-10-05T09:31:27.151Z,17.49
2022-10-05T09:34:01.485Z,17.48
2022-10-05T09:36:36.541Z,17.48
2022-10-05T09:39:14.881Z,17.51
2022-10-05T09:41:43.391Z,17.51
2022-10-05T09:44:30.994Z,17.51
2022-10-05T09:47:19.387Z,17.50
2022-10-05T09:49:57.511Z,17.54
2022-10-05T09:52:45.032Z,17.56
2022-10-05T09:55:24.683Z,17.57
2022-10-05T09:57:53.442Z,17.62
2022-10-05T10:00:26.780Z,17.66
2022-10-05T10:03:14.734Z,17.69
2022-10-05T10:05:43.419Z,17.73
2022-10-05T10:08:26.113Z,17.74
2022-10-05T10:11:24.760Z,17.76
2022-10-05T10:14:12.454Z,17.81
2022-10-05T10:16:41.492Z,17.89
2022-10-05T10:19:15.941Z,17.98
2022-10-05T10:22:03.766Z,18.07
2022-10-05T10:24:51.691Z,18.15
2022-10-05T10:27:40.452Z,18.27
2022-10-05T10:30:09.753Z,18.36
2022-10-05T10:32:44.883Z,18.44
2022-10-05T10:35:23.542Z,18.52
2022-10-05T10:38:08.177Z,18.59
2022-10-05T10:41:00.918Z,18.63
2022-10-05T10:43:46.533Z,18.69
2022-10-05T10:46:42.024Z,18.76
2022-10-05T10:49:22.956Z,18.81
2022-10-05T10:52:01.095Z,18.86
2022-10-05T10:54:48.691Z,18.91
2022-10-05T10:57:24.042Z,18.96
2022-10-05T11:00:06.691Z,18.99
2022-10-05T11:02:48.188Z,19.00
2022-10-05T11:05:23.387Z,19.00
2022-10-05T11:08:13.503Z,19.00
2022-10-05T11:10:55.479Z,19.01
2022-10-05T11:13:25.605Z,19.05
2022-10-05T11:16:15.975Z,19.06
2022-10-05T11:19:07.667Z,19.07
2022-10-05T11:21:48.815Z,19.10
2022-10-05T11:24:40.999Z,19.10
2022-10-05T11:30:10.219Z,19.14
2022-10-05T11:32:49.073Z,19.15
2022-10-05T11:35:30.329Z,19.14
2022-10-05T11:38:07.985Z,19.10
2022-10-05T11:40:46.512Z,19.09
2022-10-05T11:43:21.319Z,19.09
2022-10-05T11:46:04.149Z,19.08
2022-10-05T11:48:36.697Z,19.08
2022-10-05T11:51:28.596Z,19.07
2022-10-05T11:53:58.639Z,19.07
2022-10-05T11:56:56.540Z,19.06
2022-10-05T11:59:27.277Z,19.07
2022-10-05T12:02:15.127Z,19.06
2022-10-05T12:05:03.183Z,19.02
2022-10-05T12:07:39.170Z,18.98
2022-10-05T12:10:24.500Z,18.96
2022-10-05T12:13:15.786Z,18.95
2022-10-05T12:15:48.905Z,18.93
2022-10-05T12:18:34.706Z,18.97
2022-10-05T12:21:10.066Z,19.00
2022-10-05T12:23:44.652Z,18.99
2022-10-05T12:26:21.012Z,19.01
2022-10-05T12:29:12.760Z,19.03
2022-10-05T12:31:51.079Z,19.01
2022-10-05T12:34:26.754Z,19.05
2022-10-05T12:37:10.861Z,19.07
2022-10-05T12:39:51.272Z,19.06
2022-10-05T12:42:19.945Z,19.07
2022-10-05T12:45:11.640Z,19.07
2022-10-05T12:47:53.494Z,19.05
2022-10-05T12:50:28.770Z,19.04
2022-10-05T12:53:16.362Z,19.05
2022-10-05T12:56:04.494Z,19.06
2022-10-05T12:58:32.846Z,19.03
2022-10-05T13:01:08.631Z,19.03
2022-10-05T13:03:46.366Z,19.04
2022-10-05T13:06:27.539Z,19.01
2022-10-05T13:09:06.779Z,18.97
2022-10-05T13:11:43.523Z,18.91
2022-10-05T13:17:36.894Z,18.81
2022-10-05T13:20:15.908Z,18.76
2022-10-05T13:22:48.346Z,18.75
2022-10-05T13:25:35.906Z,18.68
2022-10-05T13:28:16.592Z,18.63
2022-10-05T13:30:51.097Z,18.60
2022-10-05T13:33:27.923Z,18.58
2022-10-05T13:36:02.209Z,18.57
2022-10-05T13:38:35.026Z,18.58
2022-10-05T13:41:04.763Z,18.58
2022-10-05T13:46:26.340Z,18.53
2022-10-05T13:48:57.846Z,18.53
2022-10-05T13:51:46.451Z,18.52
2022-10-05T13:54:15.429Z,18.47
2022-10-05T13:56:45.928Z,18.39
2022-10-05T13:59:21.447Z,18.31
2022-10-05T14:02:08.955Z,18.27
2022-10-05T14:04:45.228Z,18.25
2022-10-05T14:07:32.041Z,18.22
2022-10-05T14:10:00.720Z,18.17
2022-10-05T14:12:29.088Z,18.12
2022-10-05T14:14:58.408Z,18.09
2022-10-05T14:17:39.207Z,18.07
2022-10-05T14:20:22.363Z,18.06
2022-10-05T14:22:53.253Z,18.02
2022-10-05T14:25:22.103Z,18.01
2022-10-05T14:27:50.240Z,18.02
2022-10-05T14:30:20.393Z,17.99
2022-10-05T14:32:59.233Z,17.95
2022-10-05T14:35:31.939Z,17.94
2022-10-05T14:38:02.451Z,17.92
2022-10-05T14:40:35.699Z,17.90
2022-10-05T14:43:16.189Z,17.89
2022-10-05T14:45:58.662Z,17.87
2022-10-05T14:48:28.595Z,17.85
2022-10-05T14:50:59.597Z,17.82
2022-10-05T14:53:40.302Z,17.81
2022-10-05T14:56:23.818Z,17.79
2022-10-05T14:58:59.063Z,17.75
2022-10-05T15:01:32.018Z,17.73
2022-10-05T15:04:24.899Z,17.69
2022-10-05T15:06:55.811Z,17.65
2022-10-05T15:09:38.618Z,17.58
2022-10-05T15:12:08.042Z,17.52
2022-10-05T15:14:42.017Z,17.47
2022-10-05T15:17:31.557Z,17.42
2022-10-05T15:20:19.575Z,17.37
2022-10-05T15:22:58.641Z,17.35
2022-10-05T15:25:38.219Z,17.32
2022-10-05T15:28:08.151Z,17.30
2022-10-05T15:30:43.876Z,17.24
2022-10-05T15:33:21.627Z,17.20
2022-10-05T15:35:57.042Z,17.18
2022-10-05T15:38:40.952Z,17.14
2022-10-05T15:41:10.390Z,17.11
2022-10-05T15:43:47.832Z,17.08
2022-10-05T15:46:25.861Z,17.05
2022-10-05T15:49:02.385Z,17.00
2022-10-05T15:51:41.118Z,16.95
2022-10-05T15:54:43.783Z,16.89
2022-10-05T15:57:22.533Z,16.81
2022-10-05T15:59:59.203Z,16.75
2022-10-05T16:02:42.720Z,16.69
2022-10-05T16:05:14.481Z,16.61
2022-10-05T16:08:07.276Z,16.56
2022-10-05T16:10:42.304Z,16.50
2022-10-05T16:13:28.759Z,16.44
2022-10-05T16:16:12.903Z,16.39
2022-10-05T16:18:55.792Z,16.34
2022-10-05T16:21:39.055Z,16.31
2022-10-05T16:24:09.755Z,16.27
2022-10-05T16:26:39.346Z,16.24
2022-10-05T16:29:14.667Z,16.22
2022-10-05T16:31:47.366Z,16.19
2022-10-05T16:34:28.236Z,16.17
2022-10-05T16:37:03.419Z,16.14
2022-10-05T16:39:41.401Z,16.13
2022-10-05T16:42:20.935Z,16.10
2022-10-05T16:45:01.900Z,16.08
2022-10-05T16:47:49.063Z,16.06
2022-10-05T16:50:23.505Z,16.04
2022-10-05T16:53:01.607Z,16.02
2022-10-05T16:55:35.422Z,15.99
2022-10-05T16:58:11.569Z,15.97
2022-10-05T17:00:41.509Z,15.95
2022-10-05T17:03:13.060Z,15.92
2022-10-05T17:05:48.819Z,15.89
2022-10-05T17:08:21.731Z,15.87
2022-10-05T17:10:50.115Z,15.85
2022-10-05T17:13:30.339Z,15.84
2022-10-05T17:16:08.043Z,15.82
2022-10-05T17:18:39.225Z,15.81
2022-10-05T17:21:13.774Z,15.79
2022-10-05T17:23:54.368Z,15.75
2022-10-05T17:26:23.530Z,15.73
2022-10-05T17:28:52.713Z,15.71
2022-10-05T17:31:22.634Z,15.70
2022-10-05T17:34:00.881Z,15.68
2022-10-05T17:36:43.578Z,15.64
2022-10-05T17:39:21.309Z,15.63
2022-10-05T17:41:49.998Z,15.61
2022-10-05T17:44:21.583Z,15.59
2022-10-05T17:46:53.380Z,15.56
2022-10-05T17:49:40.300Z,15.53
2022-10-05T17:52:41.922Z,15.50
2022-10-05T17:55:25.826Z,15.48
2022-10-05T17:57:55.972Z,15.43
2022-10-05T18:00:41.090Z,15.39
2022-10-05T18:03:29.238Z,15.34
2022-10-05T18:06:38.240Z,15.31
2022-10-05T18:09:21.406Z,15.26
2022-10-05T18:12:08.489Z,15.24
2022-10-05T18:14:55.522Z,15.21
2022-10-05T18:17:42.287Z,15.18
2022-10-05T18:20:29.089Z,15.13
2022-10-05T18:23:03.216Z,15.09
2022-10-05T18:25:31.533Z,15.08
2022-10-05T18:28:15.203Z,15.04
2022-10-05T18:31:02.043Z,15.02
2022-10-05T18:33:30.769Z,14.98
2022-10-05T18:36:20.717Z,14.94
2022-10-05T18:39:17.993Z,14.90
2022-10-05T18:41:49.071Z,14.86
2022-10-05T18:44:20.380Z,14.81
2022-10-05T18:46:54.607Z,14.77
2022-10-05T18:49:41.274Z,14.73
2022-10-05T18:52:27.634Z,14.69
2022-10-05T18:55:04.714Z,14.66
2022-10-05T18:57:55.767Z,14.64
2022-10-05T19:00:24.682Z,14.61
2022-10-05T19:02:53.013Z,14.58
2022-10-05T19:05:47.502Z,14.56
2022-10-05T19:08:43.149Z,14.54
2022-10-05T19:11:11.248Z,14.51
2022-10-05T19:13:43.021Z,14.49
2022-10-05T19:16:30.444Z,14.48
2022-10-05T19:19:24.010Z,14.45
2022-10-05T19:22:04.689Z,14.43
2022-10-05T19:24:52.486Z,14.41
2022-10-05T19:27:39.643Z,14.39
2022-10-05T19:30:14.795Z,14.37
2022-10-05T19:32:46.344Z,14.35
2022-10-05T19:35:22.608Z,14.32
2022-10-05T19:38:03.662Z,14.29
2022-10-05T19:40:35.088Z,14.27
2022-10-05T19:43:23.471Z,14.23
2022-10-05T19:45:59.433Z,14.21
2022-10-05T19:48:32.622Z,14.18
2022-10-05T19:51:03.227Z,14.14
2022-10-05T19:53:37.882Z,14.11
2022-10-05T19:56:25.477Z,14.10
2022-10-05T19:58:57.758Z,14.08
2022-10-05T20:01:36.342Z,14.07
2022-10-05T20:04:05.535Z,14.05
2022-10-05T20:06:34.593Z,14.03
2022-10-05T20:09:19.975Z,14.01
2022-10-05T20:11:57.512Z,14.00
2022-10-05T20:14:30.917Z,13.98
2022-10-05T20:17:45.464Z,13.96
2022-10-05T20:20:23.764Z,13.92
2022-10-05T20:22:52.960Z,13.90
2022-10-05T20:25:22.941Z,13.90
2022-10-05T20:27:54.459Z,13.89
2022-10-05T20:30:31.610Z,13.89
2022-10-05T20:33:01.744Z,13.88
2022-10-05T20:35:31.062Z,13.87
2022-10-05T20:38:00.572Z,13.87
2022-10-05T20:40:30.020Z,13.86
2022-10-05T20:43:00.083Z,13.86
2022-10-05T20:45:28.931Z,13.85
2022-10-05T20:47:57.701Z,13.84
2022-10-05T20:50:27.982Z,13.83
2022-10-05T20:52:57.904Z,13.83
2022-10-05T20:55:31.639Z,13.83
2022-10-05T20:58:00.742Z,13.82
2022-10-05T21:00:49.458Z,13.80
2022-10-05T21:03:19.137Z,13.80
2022-10-05T21:05:47.856Z,13.79
2022-10-05T21:08:18.031Z,13.78
2022-10-05T21:10:46.371Z,13.78
2022-10-05T21:13:14.922Z,13.78
2022-10-05T21:15:43.070Z,13.78
2022-10-05T21:18:11.883Z,13.76
2022-10-05T21:20:40.606Z,13.76
2022-10-05T21:23:09.333Z,13.74
2022-10-05T21:25:38.233Z,13.73
2022-10-05T21:28:07.203Z,13.71
2022-10-05T21:30:35.844Z,13.69
2022-10-05T21:33:05.142Z,13.66
2022-10-05T21:35:33.619Z,13.66
2022-10-05T21:38:02.541Z,13.66
2022-10-05T21:40:31.340Z,13.64
2022-10-05T21:43:00.219Z,13.64
2022-10-05T21:45:29.968Z,13.64
2022-10-05T21:47:59.032Z,13.65
2022-10-05T21:50:28.222Z,13.65
2022-10-05T21:52:57.211Z,13.65
2022-10-05T21:55:25.327Z,13.64
2022-10-05T21:57:55.921Z,13.62
2022-10-05T22:00:24.880Z,13.61
2022-10-05T22:02:53.290Z,13.58
2022-10-05T22:05:22.687Z,13.56
2022-10-05T22:07:52.573Z,13.57
2022-10-05T22:10:21.562Z,13.53
2022-10-05T22:12:49.969Z,13.52
2022-10-05T22:15:18.736Z,13.53
2022-10-05T22:18:01.034Z,13.54
2022-10-05T22:20:29.929Z,13.52
2022-10-05T22:22:59.238Z,13.52
2022-10-05T22:25:27.831Z,13.52
2022-10-05T22:27:56.585Z,13.52
2022-10-05T22:30:25.116Z,13.50
2022-10-05T22:32:54.184Z,13.49
2022-10-05T22:35:23.302Z,13.48
2022-10-05T22:37:52.394Z,13.49
2022-10-05T22:40:21.701Z,13.48
2022-10-05T22:42:50.592Z,13.48
2022-10-05T22:45:19.437Z,13.46
2022-10-05T22:47:48.860Z,13.45
2022-10-05T22:50:17.706Z,13.43
2022-10-05T22:52:49.618Z,13.41
2022-10-05T22:55:18.463Z,13.40
2022-10-05T22:57:47.773Z,13.39
2022-10-05T23:00:16.832Z,13.37
